createdAt,value
2022-09-28T00:02:25.465Z,88.40
2022-09-28T00:04:52.378Z,88.50
2022-09-28T00:07:19.124Z,88.20
2022-09-28T00:09:45.851Z,88.20
2022-09-28T00:12:12.597Z,88.50
2022-09-28T00:14:40.552Z,87.90
2022-09-28T00:17:08.270Z,88.00
2022-09-28T00:19:35.080Z,88.40
2022-09-28T00:22:01.798Z,88.00
2022-09-28T00:24:28.761Z,87.80
2022-09-28T00:26:57.865Z,88.20
2022-09-28T00:29:28.913Z,88.20
2022-09-28T00:32:02.415Z,88.20
2022-09-28T00:34:35.239Z,88.20
2022-09-28T00:37:04.503Z,88.60
2022-09-28T00:39:31.713Z,88.70
2022-09-28T00:41:59.608Z,88.60
2022-09-28T00:44:26.273Z,88.60
2022-09-28T00:47:01.916Z,88.50
2022-09-28T00:49:38.900Z,88.50
2022-09-28T00:52:08.769Z,88.70
2022-09-28T00:54:36.475Z,88.60
2022-09-28T00:57:04.673Z,88.50
2022-09-28T00:59:33.301Z,88.40
2022-09-28T01:02:01.489Z,88.60
2022-09-28T01:04:30.093Z,88.60
2022-09-28T01:06:58.904Z,88.20
2022-09-28T01:09:27.396Z,88.30
2022-09-28T01:11:55.130Z,88.60
2022-09-28T01:14:25.551Z,89.10
2022-09-28T01:17:00.545Z,88.90
2022-09-28T01:19:51.309Z,88.60
2022-09-28T01:23:12.893Z,89.00
2022-09-28T01:26:07.001Z,88.90
2022-09-28T01:28:35.360Z,89.30
2022-09-28T01:31:10.846Z,89.20
2022-09-28T01:33:43.851Z,89.20
2022-09-28T01:36:27.712Z,89.30
2022-09-28T01:39:08.495Z,88.80
2022-09-28T01:41:38.055Z,89.10
2022-09-28T01:44:08.767Z,89.10
2022-09-28T01:46:42.065Z,89.60
2022-09-28T01:49:17.397Z,89.50
2022-09-28T01:52:00.275Z,89.90
2022-09-28T01:54:43.829Z,89.80
2022-09-28T01:57:26.780Z,90.10
2022-09-28T02:00:02.788Z,89.90
2022-09-28T02:02:53.909Z,90.40
2022-09-28T02:05:28.239Z,90.40
2022-09-28T02:08:07.778Z,90.70
2022-09-28T02:10:52.875Z,90.90
2022-09-28T02:13:25.495Z,91.40
2022-09-28T02:16:00.397Z,91.50
2022-09-28T02:18:27.239Z,91.90
2022-09-28T02:21:01.145Z,92.00
2022-09-28T02:23:30.892Z,92.00
2022-09-28T02:26:08.935Z,92.00
2022-09-28T02:28:35.632Z,91.80
2022-09-28T02:31:02.535Z,91.60
2022-09-28T02:33:42.724Z,91.70
2022-09-28T02:36:10.167Z,91.40
2022-09-28T02:38:37.872Z,91.50
2022-09-28T02:41:16.401Z,91.20
2022-09-28T02:43:59.899Z,90.90
2022-09-28T02:46:42.019Z,91.30
2022-09-28T02:49:33.502Z,91.80
2022-09-28T02:52:46.319Z,91.80
2022-09-28T02:55:47.363Z,91.60
2022-09-28T02:58:47.875Z,91.60
2022-09-28T03:01:29.895Z,91.70
2022-09-28T03:04:02.733Z,91.70
2022-09-28T03:06:37.382Z,91.70
2022-09-28T03:09:21.447Z,91.80
2022-09-28T03:11:55.608Z,92.10
2022-09-28T03:14:22.599Z,91.80
2022-09-28T03:16:49.293Z,92.00
2022-09-28T03:19:19.641Z,92.30
2022-09-28T03:21:46.355Z,92.10
2022-09-28T03:24:13.417Z,92.10
2022-09-28T03:26:40.453Z,92.30
2022-09-28T03:29:07.211Z,92.30
2022-09-28T03:31:35.099Z,92.30
2022-09-28T03:34:01.916Z,92.20
2022-09-28T03:36:28.754Z,92.30
2022-09-28T03:38:56.241Z,92.40
2022-09-28T03:41:24.836Z,92.20
2022-09-28T03:43:51.573Z,92.30
2022-09-28T03:46:18.313Z,92.40
2022-09-28T03:48:45.064Z,92.30
2022-09-28T03:51:12.345Z,92.10
2022-09-28T03:53:39.363Z,91.90
2022-09-28T03:56:08.939Z,92.00
2022-09-28T03:58:35.652Z,92.00
2022-09-28T04:01:07.741Z,92.00
2022-09-28T04:03:34.766Z,92.10
2022-09-28T04:06:01.796Z,92.30
2022-09-28T04:08:28.873Z,92.30
2022-09-28T04:10:59.512Z,92.00
2022-09-28T04:13:28.419Z,92.20
2022-09-28T04:15:57.446Z,92.30
2022-09-28T04:18:25.046Z,92.50
2022-09-28T04:21:10.207Z,92.50
2022-09-28T04:23:38.935Z,92.30
2022-09-28T04:26:07.706Z,92.50
2022-09-28T04:29:09.968Z,92.50
2022-09-28T04:31:42.817Z,92.40
2022-09-28T04:34:10.261Z,92.40
2022-09-28T04:36:37.177Z,92.40
2022-09-28T04:39:04.075Z,92.50
2022-09-28T04:41:30.779Z,92.50
2022-09-28T04:43:57.493Z,92.50
2022-09-28T04:46:24.175Z,92.40
2022-09-28T04:48:50.880Z,92.60
2022-09-28T04:51:17.590Z,92.70
2022-09-28T04:53:44.294Z,92.50
2022-09-28T04:56:15.271Z,92.50
2022-09-28T04:58:42.711Z,92.60
2022-09-28T05:01:13.372Z,92.60
2022-09-28T05:03:40.221Z,92.50
2022-09-28T05:06:07.905Z,92.30
2022-09-28T05:08:35.699Z,92.40
2022-09-28T05:11:05.246Z,92.20
2022-09-28T05:13:33.440Z,92.00
2022-09-28T05:16:05.071Z,92.10
2022-09-28T05:18:32.694Z,92.20
2022-09-28T05:20:59.460Z,92.30
2022-09-28T05:23:26.157Z,92.10
2022-09-28T05:25:53.037Z,92.20
2022-09-28T05:28:25.119Z,92.30
2022-09-28T05:30:52.225Z,92.30
2022-09-28T05:33:19.043Z,92.30
2022-09-28T05:35:47.935Z,92.30
2022-09-28T05:38:17.817Z,92.40
2022-09-28T05:40:44.683Z,92.30
2022-09-28T05:43:11.530Z,92.20
2022-09-28T05:45:38.263Z,92.20
2022-09-28T05:48:05.159Z,92.10
2022-09-28T05:50:32.087Z,92.00
2022-09-28T05:52:59.994Z,91.90
2022-09-28T05:55:27.033Z,91.50
2022-09-28T05:57:53.903Z,91.40
2022-09-28T06:00:20.701Z,90.80
2022-09-28T06:02:56.078Z,90.70
2022-09-28T06:05:23.244Z,90.80
2022-09-28T06:07:49.938Z,90.30
2022-09-28T06:10:16.694Z,90.50
2022-09-28T06:12:43.406Z,90.40
2022-09-28T06:15:10.353Z,90.20
2022-09-28T06:17:37.102Z,90.40
2022-09-28T06:20:03.886Z,90.30
2022-09-28T06:22:31.292Z,90.40
2022-09-28T06:24:58.006Z,90.30
2022-09-28T06:27:24.751Z,90.10
2022-09-28T06:29:52.026Z,90.10
2022-09-28T06:32:19.295Z,90.20
2022-09-28T06:34:45.977Z,90.40
2022-09-28T06:37:12.685Z,90.60
2022-09-28T06:39:39.382Z,91.00
2022-09-28T06:42:06.379Z,90.90
2022-09-28T06:44:33.078Z,90.20
2022-09-28T06:46:59.798Z,90.40
2022-09-28T06:49:27.711Z,90.30
2022-09-28T06:51:55.015Z,90.50
2022-09-28T06:54:25.626Z,90.50
2022-09-28T06:56:53.086Z,90.10
2022-09-28T06:59:20.291Z,90.40
2022-09-28T07:01:47.065Z,90.50
2022-09-28T07:04:13.876Z,89.80
2022-09-28T07:06:45.850Z,89.80
2022-09-28T07:09:29.747Z,90.10
2022-09-28T07:11:59.306Z,90.50
2022-09-28T07:14:44.059Z,90.70
2022-09-28T07:17:14.445Z,90.60
2022-09-28T07:19:42.021Z,90.50
2022-09-28T07:22:08.698Z,90.30
2022-09-28T07:24:35.451Z,90.70
2022-09-28T07:27:05.541Z,90.80
2022-09-28T07:29:32.234Z,90.80
2022-09-28T07:31:59.654Z,90.30
2022-09-28T07:34:26.415Z,90.90
2022-09-28T07:36:57.297Z,90.70
2022-09-28T07:39:24.430Z,90.70
2022-09-28T07:41:52.666Z,90.70
2022-09-28T07:44:21.028Z,90.60
2022-09-28T07:46:47.711Z,90.40
2022-09-28T07:49:16.465Z,90.50
2022-09-28T07:51:44.688Z,90.40
2022-09-28T07:54:11.451Z,90.80
2022-09-28T07:56:38.178Z,90.70
2022-09-28T07:59:04.977Z,90.10
2022-09-28T08:01:31.744Z,89.90
2022-09-28T08:03:58.534Z,91.30
2022-09-28T08:06:25.291Z,90.80
2022-09-28T08:08:56.158Z,90.70
2022-09-28T08:11:22.931Z,91.50
2022-09-28T08:13:50.867Z,90.80
2022-09-28T08:16:18.309Z,90.60
2022-09-28T08:18:45.095Z,90.70
2022-09-28T08:21:30.197Z,90.40
2022-09-28T08:23:56.931Z,90.80
2022-09-28T08:26:23.674Z,90.70
2022-09-28T08:28:51.180Z,89.90
2022-09-28T08:31:18.013Z,90.50
2022-09-28T08:33:44.831Z,90.50
2022-09-28T08:36:11.632Z,90.10
2022-09-28T08:38:38.368Z,89.30
2022-09-28T08:41:35.209Z,90.10
2022-09-28T08:44:13.675Z,90.10
2022-09-28T08:46:47.829Z,89.90
2022-09-28T08:49:31.073Z,89.70
2022-09-28T08:52:13.513Z,89.60
2022-09-28T08:55:02.777Z,87.90
2022-09-28T08:57:46.814Z,87.70
2022-09-28T09:00:29.854Z,88.50
2022-09-28T09:02:56.740Z,89.40
2022-09-28T09:05:56.311Z,89.20
2022-09-28T09:08:50.026Z,89.10
2022-09-28T09:11:45.195Z,88.10
2022-09-28T09:14:22.850Z,88.70
2022-09-28T09:17:31.340Z,88.70
2022-09-28T09:20:27.463Z,88.70
2022-09-28T09:23:06.011Z,88.90
2022-09-28T09:25:50.390Z,88.80
2022-09-28T09:28:48.375Z,87.10
2022-09-28T09:31:32.844Z,88.10
2022-09-28T09:34:26.100Z,88.90
2022-09-28T09:37:34.480Z,87.60
2022-09-28T09:40:29.065Z,87.20
2022-09-28T09:43:31.532Z,87.30
2022-09-28T09:46:19.850Z,86.40
2022-09-28T09:49:05.121Z,87.80
2022-09-28T09:51:46.714Z,88.20
2022-09-28T09:54:35.756Z,86.60
2022-09-28T09:57:26.577Z,87.20
2022-09-28T09:59:55.549Z,87.30
2022-09-28T10:02:31.590Z,86.30
2022-09-28T10:05:11.351Z,87.40
2022-09-28T10:07:56.906Z,85.40
2022-09-28T10:10:30.087Z,84.80
2022-09-28T10:12:57.006Z,86.50
2022-09-28T10:15:27.210Z,82.80
2022-09-28T10:18:06.735Z,84.10
2022-09-28T10:20:38.296Z,85.80
2022-09-28T10:23:06.763Z,83.20
2022-09-28T10:25:37.816Z,83.70
2022-09-28T10:28:13.425Z,83.50
2022-09-28T10:30:44.809Z,84.40
2022-09-28T10:33:34.142Z,82.90
2022-09-28T10:36:05.018Z,76.70
2022-09-28T10:38:33.593Z,78.30
2022-09-28T10:41:09.564Z,79.40
2022-09-28T10:44:08.613Z,77.70
2022-09-28T10:46:38.143Z,79.80
2022-09-28T10:49:16.178Z,79.20
2022-09-28T10:51:49.537Z,80.20
2022-09-28T10:54:25.834Z,81.20
2022-09-28T10:56:54.937Z,81.20
2022-09-28T10:59:31.105Z,79.60
2022-09-28T11:02:13.588Z,81.40
2022-09-28T11:04:43.913Z,81.00
2022-09-28T11:07:32.218Z,78.90
2022-09-28T11:10:01.323Z,77.10
2022-09-28T11:12:37.468Z,79.10
2022-09-28T11:15:07.102Z,78.20
2022-09-28T11:17:40.491Z,77.80
2022-09-28T11:20:31.444Z,78.80
2022-09-28T11:23:30.211Z,80.80
2022-09-28T11:26:06.943Z,82.30
2022-09-28T11:28:37.606Z,84.80
2022-09-28T11:31:07.279Z,83.70
2022-09-28T11:33:42.294Z,84.60
2022-09-28T11:36:17.987Z,85.20
2022-09-28T11:38:58.602Z,85.00
2022-09-28T11:41:36.462Z,85.80
2022-09-28T11:44:37.225Z,85.70
2022-09-28T11:47:42.873Z,85.70
2022-09-28T11:50:23.670Z,85.40
2022-09-28T11:53:02.233Z,85.70
2022-09-28T11:55:54.243Z,85.10
2022-09-28T11:58:27.614Z,83.70
2022-09-28T12:01:20.696Z,85.80
2022-09-28T12:03:53.383Z,84.70
2022-09-28T12:06:25.043Z,82.80
2022-09-28T12:08:58.260Z,84.80
2022-09-28T12:11:35.867Z,82.50
2022-09-28T12:14:06.730Z,80.90
2022-09-28T12:19:55.369Z,80.60
2022-09-28T12:23:05.457Z,77.00
2022-09-28T12:25:46.634Z,69.30
2022-09-28T12:28:25.322Z,71.40
2022-09-28T12:30:54.564Z,67.20
2022-09-28T12:33:21.355Z,67.80
2022-09-28T12:36:41.928Z,68.40
2022-09-28T12:39:27.159Z,67.20
2022-09-28T12:42:08.453Z,65.30
2022-09-28T12:44:59.395Z,64.40
2022-09-28T12:47:54.693Z,63.40
2022-09-28T12:50:39.394Z,60.00
2022-09-28T12:53:38.758Z,63.10
2022-09-28T12:56:20.924Z,64.40
2022-09-28T12:58:52.099Z,65.40
2022-09-28T13:01:52.829Z,67.30
2022-09-28T13:04:45.862Z,70.50
2022-09-28T13:07:38.611Z,67.60
2022-09-28T13:10:47.155Z,65.90
2022-09-28T13:13:37.311Z,67.60
2022-09-28T13:16:17.585Z,69.20
2022-09-28T13:19:03.855Z,70.10
2022-09-28T13:21:51.783Z,66.60
2022-09-28T13:24:34.044Z,68.60
2022-09-28T13:27:13.357Z,69.40
2022-09-28T13:29:41.304Z,72.60
2022-09-28T13:32:09.734Z,71.00
2022-09-28T13:34:37.935Z,67.60
2022-09-28T13:37:25.501Z,68.00
2022-09-28T13:39:56.770Z,66.50
2022-09-28T13:42:36.982Z,61.70
2022-09-28T13:45:17.210Z,59.60
2022-09-28T13:48:02.791Z,60.20
2022-09-28T13:50:39.178Z,60.90
2022-09-28T13:53:36.152Z,62.20
2022-09-28T13:56:21.697Z,64.20
2022-09-28T13:58:56.348Z,62.40
2022-09-28T14:01:51.482Z,64.90
2022-09-28T14:04:21.795Z,66.90
2022-09-28T14:07:15.373Z,65.10
2022-09-28T14:09:51.267Z,66.50
2022-09-28T14:12:46.187Z,65.00
2022-09-28T14:15:35.093Z,66.80
2022-09-28T14:18:23.741Z,65.80
2022-09-28T14:21:21.802Z,68.00
2022-09-28T14:24:04.369Z,67.30
2022-09-28T14:26:56.164Z,68.30
2022-09-28T14:29:33.320Z,62.70
2022-09-28T14:32:08.900Z,57.80
2022-09-28T14:34:41.318Z,63.30
2022-09-28T14:37:46.918Z,65.70
2022-09-28T14:40:42.886Z,64.50
2022-09-28T14:43:57.513Z,64.60
2022-09-28T14:46:33.521Z,67.40
2022-09-28T14:49:25.362Z,66.90
2022-09-28T14:51:58.069Z,68.30
2022-09-28T14:54:27.570Z,69.60
2022-09-28T14:57:07.983Z,71.10
2022-09-28T14:59:43.441Z,72.00
2022-09-28T15:02:39.555Z,73.20
2022-09-28T15:05:06.489Z,73.30
2022-09-28T15:07:49.583Z,74.00
2022-09-28T15:10:32.131Z,74.20
2022-09-28T15:13:14.140Z,74.20
2022-09-28T15:15:43.544Z,72.70
2022-09-28T15:18:19.331Z,73.70
2022-09-28T15:20:51.169Z,72.80
2022-09-28T15:23:33.153Z,73.70
2022-09-28T15:26:01.164Z,73.80
2022-09-28T15:28:28.059Z,73.20
2022-09-28T15:31:02.813Z,74.00
2022-09-28T15:33:51.355Z,75.20
2022-09-28T15:36:29.163Z,73.60
2022-09-28T15:38:57.591Z,70.90
2022-09-28T15:41:25.618Z,73.80
2022-09-28T15:44:12.054Z,75.00
2022-09-28T15:46:47.890Z,74.40
2022-09-28T15:49:27.962Z,74.20
2022-09-28T15:51:56.110Z,73.60
2022-09-28T15:54:37.507Z,74.90
2022-09-28T15:57:04.431Z,75.60
2022-09-28T15:59:40.597Z,76.50
2022-09-28T16:02:11.516Z,76.00
2022-09-28T16:04:55.863Z,76.10
2022-09-28T16:07:24.560Z,76.40
2022-09-28T16:10:33.398Z,76.00
2022-09-28T16:13:18.572Z,77.30
2022-09-28T16:15:45.702Z,77.20
2022-09-28T16:18:23.371Z,76.90
2022-09-28T16:20:53.809Z,77.90
2022-09-28T16:23:34.002Z,78.20
2022-09-28T16:26:10.422Z,78.60
2022-09-28T16:28:51.694Z,78.70
2022-09-28T16:31:52.566Z,78.90
2022-09-28T16:34:23.563Z,79.30
2022-09-28T16:36:50.665Z,79.20
2022-09-28T16:39:19.103Z,79.70
2022-09-28T16:41:51.501Z,80.10
2022-09-28T16:44:28.386Z,79.50
2022-09-28T16:46:58.426Z,80.80
2022-09-28T16:49:26.794Z,80.80
2022-09-28T16:51:53.857Z,81.10
2022-09-28T16:54:42.073Z,81.10
2022-09-28T16:57:12.334Z,82.30
2022-09-28T16:59:39.403Z,82.40
2022-09-28T17:02:44.983Z,82.50
2022-09-28T17:05:14.927Z,83.00
2022-09-28T17:07:43.954Z,83.00
2022-09-28T17:10:22.943Z,82.30
2022-09-28T17:12:50.467Z,81.90
2022-09-28T17:15:19.382Z,82.30
2022-09-28T17:17:47.794Z,82.40
2022-09-28T17:20:31.428Z,82.60
2022-09-28T17:22:58.161Z,81.70
2022-09-28T17:25:26.448Z,81.20
2022-09-28T17:27:56.929Z,83.10
2022-09-28T17:30:25.806Z,82.80
2022-09-28T17:32:52.718Z,82.70
2022-09-28T17:35:24.675Z,82.80
2022-09-28T17:37:52.335Z,83.00
2022-09-28T17:40:29.502Z,82.40
2022-09-28T17:42:57.618Z,82.60
2022-09-28T17:45:31.257Z,83.00
2022-09-28T17:47:58.431Z,82.70
2022-09-28T17:50:32.424Z,82.20
2022-09-28T17:53:02.752Z,82.50
2022-09-28T17:55:31.629Z,82.70
2022-09-28T17:58:01.159Z,82.10
2022-09-28T18:00:28.134Z,82.50
2022-09-28T18:02:56.764Z,83.10
2022-09-28T18:05:25.216Z,82.50
2022-09-28T18:07:52.401Z,83.10
2022-09-28T18:10:23.880Z,84.10
2022-09-28T18:12:50.921Z,84.80
2022-09-28T18:15:19.146Z,85.20
2022-09-28T18:17:46.063Z,85.40
2022-09-28T18:20:14.203Z,85.80
2022-09-28T18:22:40.948Z,86.20
2022-09-28T18:25:07.999Z,87.20
2022-09-28T18:27:35.044Z,87.50
2022-09-28T18:30:02.230Z,87.40
2022-09-28T18:32:29.630Z,87.50
2022-09-28T18:34:56.433Z,87.50
2022-09-28T18:37:23.269Z,87.40
2022-09-28T18:39:49.968Z,87.50
2022-09-28T18:42:16.807Z,87.90
2022-09-28T18:44:43.531Z,88.00
2022-09-28T18:47:13.495Z,88.00
2022-09-28T18:49:44.742Z,88.50
2022-09-28T18:52:13.515Z,88.40
2022-09-28T18:54:40.278Z,88.50
2022-09-28T18:57:07.001Z,89.00
2022-09-28T18:59:33.993Z,89.60
2022-09-28T19:02:01.847Z,89.90
2022-09-28T19:04:29.239Z,90.10
2022-09-28T19:06:56.059Z,90.20
2022-09-28T19:09:24.541Z,90.20
2022-09-28T19:11:51.356Z,90.50
2022-09-28T19:14:18.223Z,89.80
2022-09-28T19:16:45.414Z,90.00
2022-09-28T19:19:16.504Z,90.00
2022-09-28T19:21:43.773Z,90.20
2022-09-28T19:24:15.841Z,90.40
2022-09-28T19:26:43.362Z,90.00
2022-09-28T19:29:10.951Z,90.20
2022-09-28T19:31:37.769Z,90.60
2022-09-28T19:34:04.818Z,90.80
2022-09-28T19:36:32.265Z,90.90
2022-09-28T19:39:03.357Z,90.80
2022-09-28T19:41:43.558Z,90.80
2022-09-28T19:44:13.409Z,90.50
2022-09-28T19:46:40.835Z,90.50
2022-09-28T19:49:10.503Z,90.60
2022-09-28T19:51:46.961Z,90.50
2022-09-28T19:54:26.507Z,90.40
2022-09-28T19:56:54.206Z,90.70
2022-09-28T19:59:21.615Z,91.10
2022-09-28T20:01:49.618Z,91.30
2022-09-28T20:04:16.726Z,91.30
2022-09-28T20:06:43.593Z,91.00
2022-09-28T20:09:10.410Z,91.20
2022-09-28T20:11:37.196Z,91.10
2022-09-28T20:14:09.772Z,90.90
2022-09-28T20:16:37.055Z,91.00
2022-09-28T20:19:04.821Z,91.00
2022-09-28T20:21:31.596Z,90.80
2022-09-28T20:23:58.401Z,90.70
2022-09-28T20:26:27.205Z,90.40
2022-09-28T20:28:54.267Z,90.40
2022-09-28T20:31:25.135Z,90.30
2022-09-28T20:33:52.157Z,90.40
2022-09-28T20:36:21.525Z,90.70
2022-09-28T20:38:52.931Z,90.80
2022-09-28T20:41:21.986Z,90.70
2022-09-28T20:43:54.541Z,90.70
2022-09-28T20:46:22.131Z,90.60
2022-09-28T20:48:53.955Z,90.40
2022-09-28T20:51:21.849Z,90.10
2022-09-28T20:53:51.040Z,90.20
2022-09-28T20:56:26.259Z,90.00
2022-09-28T20:58:53.881Z,90.00
2022-09-28T21:01:31.046Z,89.70
2022-09-28T21:04:03.181Z,89.70
2022-09-28T21:06:32.156Z,89.90
2022-09-28T21:08:59.133Z,90.20
2022-09-28T21:11:28.019Z,90.30
2022-09-28T21:13:58.043Z,89.90
2022-09-28T21:16:26.449Z,89.80
2022-09-28T21:18:53.377Z,89.50
2022-09-28T21:21:21.556Z,89.90
2022-09-28T21:23:51.541Z,90.50
2022-09-28T21:26:26.612Z,90.60
2022-09-28T21:28:58.036Z,90.30
2022-09-28T21:31:29.024Z,90.40
2022-09-28T21:33:57.109Z,90.90
2022-09-28T21:36:24.724Z,90.60
2022-09-28T21:38:51.473Z,90.80
2022-09-28T21:41:18.186Z,90.90
2022-09-28T21:43:45.755Z,90.90
2022-09-28T21:46:12.587Z,90.80
2022-09-28T21:48:39.470Z,90.90
2022-09-28T21:51:09.056Z,91.00
2022-09-28T21:53:37.251Z,91.10
2022-09-28T21:56:06.467Z,91.00
2022-09-28T21:58:35.302Z,91.30
2022-09-28T22:01:20.012Z,91.40
2022-09-28T22:03:51.959Z,91.40
2022-09-28T22:06:20.618Z,91.40
2022-09-28T22:08:48.811Z,91.10
2022-09-28T22:11:18.691Z,90.60
2022-09-28T22:13:51.227Z,90.60
2022-09-28T22:16:19.661Z,90.80
2022-09-28T22:18:47.449Z,90.90
2022-09-28T22:21:17.261Z,90.90
2022-09-28T22:23:44.349Z,91.20
2022-09-28T22:26:18.947Z,91.40
2022-09-28T22:28:51.266Z,91.50
2022-09-28T22:31:20.121Z,91.70
2022-09-28T22:33:46.970Z,91.50
2022-09-28T22:36:16.626Z,91.80
2022-09-28T22:38:44.393Z,91.80
2022-09-28T22:41:11.961Z,91.90
2022-09-28T22:43:38.766Z,91.70
2022-09-28T22:46:25.190Z,91.90
2022-09-28T22:48:57.457Z,92.20
2022-09-28T22:51:28.564Z,92.20
2022-09-28T22:53:56.437Z,92.30
2022-09-28T22:56:23.706Z,92.90
2022-09-28T22:58:50.466Z,92.90
2022-09-28T23:01:23.001Z,92.90
2022-09-28T23:03:51.599Z,92.70
2022-09-28T23:06:20.998Z,92.80
2022-09-28T23:08:48.535Z,93.10
2022-09-28T23:11:15.842Z,93.40
2022-09-28T23:13:43.009Z,93.20
2022-09-28T23:16:14.665Z,93.20
2022-09-28T23:18:41.814Z,92.90
2022-09-28T23:21:13.003Z,92.80
2022-09-28T23:23:39.779Z,92.60
2022-09-28T23:26:20.847Z,92.70
2022-09-28T23:28:47.596Z,92.60
2022-09-28T23:31:17.489Z,92.80
2022-09-28T23:33:44.333Z,92.80
2022-09-28T23:36:11.500Z,93.00
2022-09-28T23:38:38.394Z,92.90
2022-09-28T23:41:05.872Z,92.80
2022-09-28T23:43:32.891Z,93.10
2022-09-28T23:45:59.795Z,93.00
2022-09-28T23:48:26.538Z,93.00
2022-09-28T23:50:53.245Z,92.80
2022-09-28T23:53:19.998Z,92.60
2022-09-28T23:55:46.766Z,92.80
2022-09-28T23:58:13.476Z,92.70
